sensor_id;sensor_type;location;lat;lon;timestamp;pressure;altitude;pressure_sealevel;temperature;humidity
51249;BME280;39642;47.556;18.728;2023-06-22T00:02:00;99892.41;;;24.43;62.73
51249;BME280;39642;47.556;18.728;2023-06-22T00:04:26;99897.75;;;24.43;62.73
51249;BME280;39642;47.556;18.728;2023-06-22T00:06:52;99897.75;;;24.43;62.70
51249;BME280;39642;47.556;18.728;2023-06-22T00:09:18;99889.75;;;24.43;62.59
51249;BME280;39642;47.556;18.728;2023-06-22T00:11:44;99894.19;;;24.43;62.52
51249;BME280;39642;47.556;18.728;2023-06-22T00:14:10;99899.53;;;24.43;62.41
51249;BME280;39642;47.556;18.728;2023-06-22T00:16:36;99891.53;;;24.43;62.32
51249;BME280;39642;47.556;18.728;2023-06-22T00:19:02;99890.69;;;24.42;62.23
51249;BME280;39642;47.556;18.728;2023-06-22T00:21:29;99875.56;;;24.43;62.13
51249;BME280;39642;47.556;18.728;2023-06-22T00:23:56;99867.59;;;24.43;62.03
51249;BME280;39642;47.556;18.728;2023-06-22T00:26:23;99870.25;;;24.43;61.95
51249;BME280;39642;47.556;18.728;2023-06-22T00:28:49;99872.06;;;24.42;61.86
51249;BME280;39642;47.556;18.728;2023-06-22T00:31:15;99871.22;;;24.42;61.79
51249;BME280;39642;47.556;18.728;2023-06-22T00:33:40;99870.25;;;24.43;61.69
51249;BME280;39642;47.556;18.728;2023-06-22T00:36:06;99877.38;;;24.42;61.63
51249;BME280;39642;47.556;18.728;2023-06-22T00:38:34;99869.41;;;24.42;61.59
51249;BME280;39642;47.556;18.728;2023-06-22T00:40:59;99864.09;;;24.42;61.54
51249;BME280;39642;47.556;18.728;2023-06-22T00:43:25;99856.09;;;24.42;61.48
51249;BME280;39642;47.556;18.728;2023-06-22T00:45:51;99861.41;;;24.42;61.45
51249;BME280;39642;47.556;18.728;2023-06-22T00:48:18;99866.75;;;24.42;61.42
51249;BME280;39642;47.556;18.728;2023-06-22T00:50:44;99864.09;;;24.42;61.40
51249;BME280;39642;47.556;18.728;2023-06-22T00:53:09;99862.41;;;24.41;61.39
51249;BME280;39642;47.556;18.728;2023-06-22T00:55:45;99865.06;;;24.41;61.38
51249;BME280;39642;47.556;18.728;2023-06-22T00:58:13;99871.22;;;24.42;61.35
51249;BME280;39642;47.556;18.728;2023-06-22T01:00:40;99865.91;;;24.42;61.33
51249;BME280;39642;47.556;18.728;2023-06-22T01:03:07;99854.41;;;24.41;61.32
51249;BME280;39642;47.556;18.728;2023-06-22T01:05:36;99854.41;;;24.41;61.29
51249;BME280;39642;47.556;18.728;2023-06-22T01:13:35;99866.84;;;24.41;61.28
51249;BME280;39642;47.556;18.728;2023-06-22T01:16:12;99863.34;;;24.40;61.27
51249;BME280;39642;47.556;18.728;2023-06-22T01:18:42;99852.69;;;24.40;61.27
51249;BME280;39642;47.556;18.728;2023-06-22T01:21:17;99849.19;;;24.40;61.26
51249;BME280;39642;47.556;18.728;2023-06-22T01:24:11;99857.19;;;24.40;61.26
51249;BME280;39642;47.556;18.728;2023-06-22T01:29:29;99861.66;;;24.39;61.25
51249;BME280;39642;47.556;18.728;2023-06-22T01:31:57;99851.00;;;24.39;61.24
51249;BME280;39642;47.556;18.728;2023-06-22T01:34:23;99859.00;;;24.39;61.21
51249;BME280;39642;47.556;18.728;2023-06-22T01:36:51;99861.66;;;24.39;61.21
51249;BME280;39642;47.556;18.728;2023-06-22T01:39:18;99866.97;;;24.39;61.20
51249;BME280;39642;47.556;18.728;2023-06-22T01:41:45;99865.25;;;24.38;61.18
51249;BME280;39642;47.556;18.728;2023-06-22T01:44:12;99874.13;;;24.39;61.16
51249;BME280;39642;47.556;18.728;2023-06-22T01:46:39;99871.47;;;24.39;61.15
51249;BME280;39642;47.556;18.728;2023-06-22T01:49:06;99876.78;;;24.39;61.14
51249;BME280;39642;47.556;18.728;2023-06-22T01:51:32;99869.75;;;24.38;61.13
51249;BME280;39642;47.556;18.728;2023-06-22T01:53:58;99878.56;;;24.38;61.13
51249;BME280;39642;47.556;18.728;2023-06-22T01:56:23;99875.06;;;24.38;61.12
51249;BME280;39642;47.556;18.728;2023-06-22T01:59:06;99880.38;;;24.38;61.12
51249;BME280;39642;47.556;18.728;2023-06-22T02:01:42;99886.56;;;24.38;61.12
51249;BME280;39642;47.556;18.728;2023-06-22T02:04:14;99883.06;;;24.38;61.09
51249;BME280;39642;47.556;18.728;2023-06-22T02:06:45;99884.88;;;24.37;61.10
51249;BME280;39642;47.556;18.728;2023-06-22T02:09:14;99892.00;;;24.37;61.09
51249;BME280;39642;47.556;18.728;2023-06-22T02:11:43;99898.19;;;24.37;61.09
51249;BME280;39642;47.556;18.728;2023-06-22T02:14:10;99894.69;;;24.37;61.07
51249;BME280;39642;47.556;18.728;2023-06-22T02:16:37;99899.12;;;24.36;61.07
51249;BME280;39642;47.556;18.728;2023-06-22T02:19:03;99900.00;;;24.37;61.03
51249;BME280;39642;47.556;18.728;2023-06-22T02:21:30;99895.63;;;24.36;61.01
51249;BME280;39642;47.556;18.728;2023-06-22T02:23:56;99892.13;;;24.35;61.00
51249;BME280;39642;47.556;18.728;2023-06-22T02:26:23;99897.44;;;24.35;60.97
51249;BME280;39642;47.556;18.728;2023-06-22T02:28:50;99898.28;;;24.36;60.96
51249;BME280;39642;47.556;18.728;2023-06-22T02:31:16;99896.59;;;24.35;60.93
51249;BME280;39642;47.556;18.728;2023-06-22T02:33:42;99905.41;;;24.35;60.89
51249;BME280;39642;47.556;18.728;2023-06-22T02:36:09;99905.41;;;24.35;60.87
51249;BME280;39642;47.556;18.728;2023-06-22T02:38:41;99905.41;;;24.35;60.86
51249;BME280;39642;47.556;18.728;2023-06-22T02:41:15;99909.91;;;24.35;60.82
51249;BME280;39642;47.556;18.728;2023-06-22T02:43:46;99909.06;;;24.34;60.80
51249;BME280;39642;47.556;18.728;2023-06-22T02:46:13;99908.19;;;24.34;60.76
51249;BME280;39642;47.556;18.728;2023-06-22T02:48:40;99902.03;;;24.33;60.74
51249;BME280;39642;47.556;18.728;2023-06-22T02:51:06;99905.53;;;24.34;60.73
51249;BME280;39642;47.556;18.728;2023-06-22T02:53:33;99905.53;;;24.34;60.71
51249;BME280;39642;47.556;18.728;2023-06-22T02:55:59;99904.69;;;24.33;60.69
51249;BME280;39642;47.556;18.728;2023-06-22T02:58:26;99912.66;;;24.33;60.67
51249;BME280;39642;47.556;18.728;2023-06-22T03:00:52;99909.16;;;24.33;60.67
51249;BME280;39642;47.556;18.728;2023-06-22T03:03:19;99908.31;;;24.32;60.65
51249;BME280;39642;47.556;18.728;2023-06-22T03:05:45;99891.47;;;24.31;60.62
51249;BME280;39642;47.556;18.728;2023-06-22T03:08:11;99895.00;;;24.32;60.61
51249;BME280;39642;47.556;18.728;2023-06-22T03:10:37;99892.34;;;24.32;60.59
51249;BME280;39642;47.556;18.728;2023-06-22T03:13:03;99892.34;;;24.32;60.56
51249;BME280;39642;47.556;18.728;2023-06-22T03:15:28;99890.53;;;24.33;60.53
51249;BME280;39642;47.556;18.728;2023-06-22T03:17:58;99881.81;;;24.30;60.49
51249;BME280;39642;47.556;18.728;2023-06-22T03:20:24;99880.84;;;24.31;60.46
51249;BME280;39642;47.556;18.728;2023-06-22T03:22:52;99888.81;;;24.31;60.41
51249;BME280;39642;47.556;18.728;2023-06-22T03:25:18;99881.81;;;24.30;60.38
51249;BME280;39642;47.556;18.728;2023-06-22T03:27:45;99885.31;;;24.31;60.34
51249;BME280;39642;47.556;18.728;2023-06-22T03:30:11;99886.28;;;24.30;60.31
51249;BME280;39642;47.556;18.728;2023-06-22T03:32:38;99885.31;;;24.31;60.29
51249;BME280;39642;47.556;18.728;2023-06-22T03:35:04;99884.47;;;24.30;60.23
51249;BME280;39642;47.556;18.728;2023-06-22T03:37:31;99880.97;;;24.30;60.21
51249;BME280;39642;47.556;18.728;2023-06-22T03:39:57;99883.62;;;24.30;60.18
51249;BME280;39642;47.556;18.728;2023-06-22T03:42:23;99874.78;;;24.29;60.14
51249;BME280;39642;47.556;18.728;2023-06-22T03:44:49;99875.66;;;24.30;60.13
51249;BME280;39642;47.556;18.728;2023-06-22T03:47:15;99880.22;;;24.28;60.13
51249;BME280;39642;47.556;18.728;2023-06-22T03:49:41;99881.91;;;24.29;60.10
51249;BME280;39642;47.556;18.728;2023-06-22T03:52:07;99887.22;;;24.29;60.09
51249;BME280;39642;47.556;18.728;2023-06-22T03:54:33;99887.22;;;24.29;60.06
51249;BME280;39642;47.556;18.728;2023-06-22T03:56:59;99883.62;;;24.30;60.04
51249;BME280;39642;47.556;18.728;2023-06-22T03:59:25;99875.75;;;24.28;60.02
51249;BME280;39642;47.556;18.728;2023-06-22T04:01:51;99875.75;;;24.28;60.02
51249;BME280;39642;47.556;18.728;2023-06-22T04:04:17;99879.25;;;24.29;60.00
51249;BME280;39642;47.556;18.728;2023-06-22T04:06:43;99875.75;;;24.28;60.00
51249;BME280;39642;47.556;18.728;2023-06-22T04:09:09;99884.56;;;24.29;60.00
51249;BME280;39642;47.556;18.728;2023-06-22T04:11:35;99895.22;;;24.29;60.00
51249;BME280;39642;47.556;18.728;2023-06-22T04:14:01;99901.50;;;24.28;60.00
51249;BME280;39642;47.556;18.728;2023-06-22T04:16:27;99904.03;;;24.29;60.03
51249;BME280;39642;47.556;18.728;2023-06-22T04:18:53;99895.22;;;24.29;60.02
51249;BME280;39642;47.556;18.728;2023-06-22T04:21:19;99898.00;;;24.27;60.00
51249;BME280;39642;47.556;18.728;2023-06-22T04:23:47;99896.19;;;24.28;60.05
51249;BME280;39642;47.556;18.728;2023-06-22T04:26:13;99902.34;;;24.28;60.04
51249;BME280;39642;47.556;18.728;2023-06-22T04:28:42;99907.69;;;24.28;60.07
51249;BME280;39642;47.556;18.728;2023-06-22T04:31:08;99902.34;;;24.28;60.09
51249;BME280;39642;47.556;18.728;2023-06-22T04:33:34;99908.53;;;24.29;60.11
51249;BME280;39642;47.556;18.728;2023-06-22T04:36:00;99916.50;;;24.29;60.14
51249;BME280;39642;47.556;18.728;2023-06-22T04:38:26;99907.69;;;24.28;60.16
51249;BME280;39642;47.556;18.728;2023-06-22T04:40:53;99912.16;;;24.28;60.20
51249;BME280;39642;47.556;18.728;2023-06-22T04:43:19;99913.84;;;24.29;60.21
51249;BME280;39642;47.556;18.728;2023-06-22T04:45:45;99919.16;;;24.29;60.26
51249;BME280;39642;47.556;18.728;2023-06-22T04:48:11;99909.50;;;24.28;60.28
51249;BME280;39642;47.556;18.728;2023-06-22T04:50:42;99913.00;;;24.28;60.29
51249;BME280;39642;47.556;18.728;2023-06-22T04:53:08;99911.19;;;24.29;60.33
51249;BME280;39642;47.556;18.728;2023-06-22T04:55:39;99915.56;;;24.30;60.35
51249;BME280;39642;47.556;18.728;2023-06-22T04:58:07;99910.34;;;24.28;60.38
51249;BME280;39642;47.556;18.728;2023-06-22T05:00:33;99920.00;;;24.29;60.40
51249;BME280;39642;47.556;18.728;2023-06-22T05:03:01;99913.84;;;24.29;60.42
51249;BME280;39642;47.556;18.728;2023-06-22T05:05:29;99923.53;;;24.30;60.46
51249;BME280;39642;47.556;18.728;2023-06-22T05:07:56;99920.00;;;24.29;60.48
51249;BME280;39642;47.556;18.728;2023-06-22T05:10:25;99925.22;;;24.31;60.50
51249;BME280;39642;47.556;18.728;2023-06-22T05:12:51;99921.72;;;24.30;60.53
51249;BME280;39642;47.556;18.728;2023-06-22T05:15:17;99933.22;;;24.31;60.54
51249;BME280;39642;47.556;18.728;2023-06-22T05:17:45;99933.22;;;24.31;60.56
51249;BME280;39642;47.556;18.728;2023-06-22T05:20:12;99927.88;;;24.31;60.58
51249;BME280;39642;47.556;18.728;2023-06-22T05:22:39;99929.59;;;24.32;60.58
51249;BME280;39642;47.556;18.728;2023-06-22T05:25:09;99932.28;;;24.32;60.59
51249;BME280;39642;47.556;18.728;2023-06-22T05:27:36;99941.09;;;24.33;60.60
51249;BME280;39642;47.556;18.728;2023-06-22T05:30:06;99950.91;;;24.32;60.61
51249;BME280;39642;47.556;18.728;2023-06-22T05:32:32;99957.16;;;24.31;60.65
51249;BME280;39642;47.556;18.728;2023-06-22T05:34:59;99952.59;;;24.33;60.65
51249;BME280;39642;47.556;18.728;2023-06-22T05:37:25;99954.31;;;24.34;60.65
51249;BME280;39642;47.556;18.728;2023-06-22T05:39:51;99963.22;;;24.33;60.67
51249;BME280;39642;47.556;18.728;2023-06-22T05:42:18;99964.94;;;24.34;60.70
51249;BME280;39642;47.556;18.728;2023-06-22T05:44:44;99973.78;;;24.35;60.70
51249;BME280;39642;47.556;18.728;2023-06-22T05:47:10;99969.28;;;24.35;60.73
51249;BME280;39642;47.556;18.728;2023-06-22T05:49:36;99971.97;;;24.35;60.73
51249;BME280;39642;47.556;18.728;2023-06-22T05:52:01;99977.28;;;24.35;60.75
51249;BME280;39642;47.556;18.728;2023-06-22T05:54:28;99978.97;;;24.36;60.76
51249;BME280;39642;47.556;18.728;2023-06-22T05:56:54;99973.62;;;24.36;60.79
51249;BME280;39642;47.556;18.728;2023-06-22T05:59:20;99984.09;;;24.39;60.79
51249;BME280;39642;47.556;18.728;2023-06-22T06:01:45;99976.31;;;24.49;60.23
51249;BME280;39642;47.556;18.728;2023-06-22T06:04:17;99976.38;;;24.60;60.06
51249;BME280;39642;47.556;18.728;2023-06-22T06:06:43;99971.47;;;24.67;60.57
51249;BME280;39642;47.556;18.728;2023-06-22T06:09:09;99966.78;;;24.70;60.50
51249;BME280;39642;47.556;18.728;2023-06-22T06:11:37;99968.84;;;24.78;61.11
51249;BME280;39642;47.556;18.728;2023-06-22T06:14:03;99975.44;;;24.85;61.08
51249;BME280;39642;47.556;18.728;2023-06-22T06:16:29;99975.22;;;24.88;61.22
51249;BME280;39642;47.556;18.728;2023-06-22T06:18:55;99970.84;;;24.87;61.27
51249;BME280;39642;47.556;18.728;2023-06-22T06:21:22;99978.97;;;24.86;61.33
51249;BME280;39642;47.556;18.728;2023-06-22T06:23:47;99980.66;;;24.87;60.89
51249;BME280;39642;47.556;18.728;2023-06-22T06:26:13;99977.75;;;24.90;60.91
51249;BME280;39642;47.556;18.728;2023-06-22T06:28:42;99975.97;;;24.90;60.79
51249;BME280;39642;47.556;18.728;2023-06-22T06:31:09;99967.97;;;24.90;60.84
51249;BME280;39642;47.556;18.728;2023-06-22T06:33:36;99970.50;;;24.92;60.70
51249;BME280;39642;47.556;18.728;2023-06-22T06:36:02;99971.34;;;24.92;60.63
51249;BME280;39642;47.556;18.728;2023-06-22T06:38:30;99966.66;;;24.96;60.04
51249;BME280;39642;47.556;18.728;2023-06-22T06:40:56;99965.22;;;25.03;60.57
51249;BME280;39642;47.556;18.728;2023-06-22T06:43:22;99962.44;;;25.05;60.88
51249;BME280;39642;47.556;18.728;2023-06-22T06:45:49;99969.47;;;25.06;60.90
51249;BME280;39642;47.556;18.728;2023-06-22T06:48:15;99973.22;;;25.03;60.74
51249;BME280;39642;47.556;18.728;2023-06-22T06:50:41;99971.53;;;25.02;60.41
51249;BME280;39642;47.556;18.728;2023-06-22T06:53:07;99978.37;;;25.18;60.96
51249;BME280;39642;47.556;18.728;2023-06-22T06:55:32;99971.00;;;25.21;60.65
51249;BME280;39642;47.556;18.728;2023-06-22T06:57:58;99974.91;;;25.28;60.46
51249;BME280;39642;47.556;18.728;2023-06-22T07:00:25;99975.25;;;25.24;59.46
51249;BME280;39642;47.556;18.728;2023-06-22T07:02:51;99959.94;;;25.14;59.37
51249;BME280;39642;47.556;18.728;2023-06-22T07:05:17;99963.19;;;25.07;59.67
51249;BME280;39642;47.556;18.728;2023-06-22T07:07:43;99962.44;;;25.05;59.25
51249;BME280;39642;47.556;18.728;2023-06-22T07:10:09;99965.34;;;25.02;59.42
51249;BME280;39642;47.556;18.728;2023-06-22T07:12:35;99970.53;;;25.03;59.21
51249;BME280;39642;47.556;18.728;2023-06-22T07:15:09;99963.53;;;25.02;59.34
51249;BME280;39642;47.556;18.728;2023-06-22T07:17:36;99957.56;;;24.99;59.15
51249;BME280;39642;47.556;18.728;2023-06-22T07:20:02;99963.03;;;24.97;58.83
51249;BME280;39642;47.556;18.728;2023-06-22T07:22:33;99965.81;;;24.96;58.83
51249;BME280;39642;47.556;18.728;2023-06-22T07:24:59;99957.72;;;24.97;58.80
51249;BME280;39642;47.556;18.728;2023-06-22T07:27:25;99952.28;;;25.10;57.97
51249;BME280;39642;47.556;18.728;2023-06-22T07:29:51;99961.59;;;25.04;58.34
51249;BME280;39642;47.556;18.728;2023-06-22T07:32:16;99955.19;;;25.07;58.23
51249;BME280;39642;47.556;18.728;2023-06-22T07:34:42;99955.31;;;25.05;58.34
51249;BME280;39642;47.556;18.728;2023-06-22T07:37:09;99946.56;;;25.03;58.47
51249;BME280;39642;47.556;18.728;2023-06-22T07:39:35;99950.22;;;25.02;58.93
51249;BME280;39642;47.556;18.728;2023-06-22T07:42:01;99946.81;;;25.00;58.80
51249;BME280;39642;47.556;18.728;2023-06-22T07:44:26;99946.47;;;25.05;59.11
51249;BME280;39642;47.556;18.728;2023-06-22T07:46:52;99937.72;;;25.03;59.07
51249;BME280;39642;47.556;18.728;2023-06-22T07:49:18;99942.84;;;25.17;59.73
51249;BME280;39642;47.556;18.728;2023-06-22T07:51:44;99944.91;;;25.38;59.07
51249;BME280;39642;47.556;18.728;2023-06-22T07:54:10;99930.59;;;25.39;58.70
51249;BME280;39642;47.556;18.728;2023-06-22T07:56:36;99938.13;;;25.33;58.69
51249;BME280;39642;47.556;18.728;2023-06-22T07:59:02;99936.41;;;25.32;58.84
51249;BME280;39642;47.556;18.728;2023-06-22T08:01:29;99932.63;;;25.24;60.14
51249;BME280;39642;47.556;18.728;2023-06-22T08:03:57;99937.84;;;25.25;59.91
51249;BME280;39642;47.556;18.728;2023-06-22T08:06:23;99935.19;;;25.25;59.96
51249;BME280;39642;47.556;18.728;2023-06-22T08:08:49;99935.91;;;25.27;59.65
51249;BME280;39642;47.556;18.728;2023-06-22T08:11:15;99931.78;;;25.23;59.12
51249;BME280;39642;47.556;18.728;2023-06-22T08:13:41;99933.00;;;25.30;58.84
51249;BME280;39642;47.556;18.728;2023-06-22T08:16:07;99932.50;;;25.25;59.01
51249;BME280;39642;47.556;18.728;2023-06-22T08:18:33;99932.50;;;25.25;58.94
51249;BME280;39642;47.556;18.728;2023-06-22T08:20:59;99931.72;;;25.47;56.10
51249;BME280;39642;47.556;18.728;2023-06-22T08:23:25;99933.28;;;25.39;56.30
51249;BME280;39642;47.556;18.728;2023-06-22T08:25:51;99932.31;;;25.51;55.01
51249;BME280;39642;47.556;18.728;2023-06-22T08:28:17;99938.34;;;25.42;57.55
51249;BME280;39642;47.556;18.728;2023-06-22T08:30:42;99935.44;;;25.33;58.13
51249;BME280;39642;47.556;18.728;2023-06-22T08:33:08;99927.66;;;25.30;56.65
51249;BME280;39642;47.556;18.728;2023-06-22T08:35:34;99930.34;;;25.30;56.83
51249;BME280;39642;47.556;18.728;2023-06-22T08:38:00;99934.47;;;25.34;56.40
51249;BME280;39642;47.556;18.728;2023-06-22T08:40:27;99931.31;;;25.29;58.16
51249;BME280;39642;47.556;18.728;2023-06-22T08:42:55;99927.41;;;25.22;58.49
51249;BME280;39642;47.556;18.728;2023-06-22T08:45:21;99929.78;;;25.14;57.60
51249;BME280;39642;47.556;18.728;2023-06-22T08:47:46;99924.69;;;25.11;58.58
51249;BME280;39642;47.556;18.728;2023-06-22T08:50:13;99924.16;;;25.06;59.23
51249;BME280;39642;47.556;18.728;2023-06-22T08:52:39;99921.12;;;24.99;59.48
51249;BME280;39642;47.556;18.728;2023-06-22T08:55:09;99920.62;;;24.94;59.63
51249;BME280;39642;47.556;18.728;2023-06-22T08:57:36;99918.06;;;24.92;59.62
51249;BME280;39642;47.556;18.728;2023-06-22T09:00:08;99916.47;;;24.90;59.75
51249;BME280;39642;47.556;18.728;2023-06-22T09:02:47;99914.56;;;24.92;59.75
51249;BME280;39642;47.556;18.728;2023-06-22T09:05:13;99909.75;;;24.97;59.56
51249;BME280;39642;47.556;18.728;2023-06-22T09:07:39;99911.34;;;25.00;59.28
51249;BME280;39642;47.556;18.728;2023-06-22T09:10:06;99908.66;;;25.00;59.32
51249;BME280;39642;47.556;18.728;2023-06-22T09:12:32;99907.09;;;24.97;59.48
51249;BME280;39642;47.556;18.728;2023-06-22T09:14:59;99905.62;;;24.93;59.55
51249;BME280;39642;47.556;18.728;2023-06-22T09:17:26;99906.34;;;24.95;59.21
51249;BME280;39642;47.556;18.728;2023-06-22T09:19:52;99910.69;;;24.96;59.39
51249;BME280;39642;47.556;18.728;2023-06-22T09:22:18;99900.78;;;24.98;59.24
51249;BME280;39642;47.556;18.728;2023-06-22T09:24:44;99906.00;;;25.00;59.33
51249;BME280;39642;47.556;18.728;2023-06-22T09:27:10;99906.84;;;25.00;59.25
51249;BME280;39642;47.556;18.728;2023-06-22T09:29:36;99905.28;;;24.98;59.34
51249;BME280;39642;47.556;18.728;2023-06-22T09:32:02;99907.19;;;24.96;59.38
51249;BME280;39642;47.556;18.728;2023-06-22T09:34:28;99907.09;;;24.97;59.27
51249;BME280;39642;47.556;18.728;2023-06-22T09:36:54;99901.81;;;25.08;59.58
51249;BME280;39642;47.556;18.728;2023-06-22T09:39:20;99898.88;;;25.11;59.07
51249;BME280;39642;47.556;18.728;2023-06-22T09:41:46;99888.53;;;25.20;59.30
51249;BME280;39642;47.556;18.728;2023-06-22T09:44:12;99888.06;;;25.48;57.30
51249;BME280;39642;47.556;18.728;2023-06-22T09:46:38;99887.84;;;25.51;57.25
51249;BME280;39642;47.556;18.728;2023-06-22T09:49:04;99890.50;;;25.40;58.17
51249;BME280;39642;47.556;18.728;2023-06-22T09:58:14;99887.03;;;25.16;59.22
51249;BME280;39642;47.556;18.728;2023-06-22T10:00:40;99889.41;;;25.43;58.53
51249;BME280;39642;47.556;18.728;2023-06-22T10:03:07;99886.16;;;25.73;57.68
51249;BME280;39642;47.556;18.728;2023-06-22T10:05:33;99880.59;;;25.76;57.37
51249;BME280;39642;47.556;18.728;2023-06-22T10:07:59;99884.13;;;25.88;57.56
51249;BME280;39642;47.556;18.728;2023-06-22T10:10:25;99886.16;;;25.84;57.29
51249;BME280;39642;47.556;18.728;2023-06-22T10:13:01;99886.03;;;25.86;57.65
51249;BME280;39642;47.556;18.728;2023-06-22T10:15:28;99888.81;;;25.84;57.57
51249;BME280;39642;47.556;18.728;2023-06-22T10:17:54;99888.59;;;25.76;57.13
51249;BME280;39642;47.556;18.728;2023-06-22T10:20:20;99887.50;;;25.67;57.94
51249;BME280;39642;47.556;18.728;2023-06-22T10:22:47;99892.47;;;25.61;58.15
51249;BME280;39642;47.556;18.728;2023-06-22T10:25:13;99883.25;;;25.53;57.66
51249;BME280;39642;47.556;18.728;2023-06-22T10:27:39;99880.44;;;25.44;57.89
51249;BME280;39642;47.556;18.728;2023-06-22T10:30:07;99879.97;;;25.39;58.17
51249;BME280;39642;47.556;18.728;2023-06-22T10:32:33;99870.50;;;25.34;58.14
51249;BME280;39642;47.556;18.728;2023-06-22T10:34:59;99871.69;;;25.30;58.33
51249;BME280;39642;47.556;18.728;2023-06-22T10:37:25;99867.47;;;25.28;58.34
51249;BME280;39642;47.556;18.728;2023-06-22T10:39:51;99864.19;;;25.24;58.40
51249;BME280;39642;47.556;18.728;2023-06-22T10:42:17;99868.91;;;25.21;58.53
51249;BME280;39642;47.556;18.728;2023-06-22T10:44:43;99876.06;;;25.20;58.76
51249;BME280;39642;47.556;18.728;2023-06-22T10:47:10;99865.41;;;25.20;59.58
51249;BME280;39642;47.556;18.728;2023-06-22T10:49:40;99872.56;;;25.20;58.70
51249;BME280;39642;47.556;18.728;2023-06-22T10:52:07;99872.63;;;25.18;58.73
51249;BME280;39642;47.556;18.728;2023-06-22T10:54:34;99873.72;;;25.16;58.89
51249;BME280;39642;47.556;18.728;2023-06-22T10:57:01;99869.34;;;25.14;58.89
51249;BME280;39642;47.556;18.728;2023-06-22T10:59:27;99873.94;;;25.12;58.92
51249;BME280;39642;47.556;18.728;2023-06-22T11:01:55;99867.03;;;25.10;59.03
51249;BME280;39642;47.556;18.728;2023-06-22T11:04:21;99868.84;;;25.09;59.09
51249;BME280;39642;47.556;18.728;2023-06-22T11:06:48;99866.28;;;25.08;59.09
51249;BME280;39642;47.556;18.728;2023-06-22T11:09:15;99866.28;;;25.08;59.02
51249;BME280;39642;47.556;18.728;2023-06-22T11:11:51;99862.78;;;25.07;59.12
51249;BME280;39642;47.556;18.728;2023-06-22T11:14:20;99862.78;;;25.07;59.34
51249;BME280;39642;47.556;18.728;2023-06-22T11:16:47;99846.69;;;25.09;59.03
51249;BME280;39642;47.556;18.728;2023-06-22T11:19:13;99854.69;;;25.09;59.03
51249;BME280;39642;47.556;18.728;2023-06-22T11:21:39;99841.37;;;25.09;58.98
51249;BME280;39642;47.556;18.728;2023-06-22T11:24:05;99842.19;;;25.09;59.07
51249;BME280;39642;47.556;18.728;2023-06-22T11:26:31;99844.25;;;25.06;59.20
51249;BME280;39642;47.556;18.728;2023-06-22T11:28:58;99848.97;;;25.02;59.42
51249;BME280;39642;47.556;18.728;2023-06-22T11:31:24;99844.59;;;25.01;59.30
51249;BME280;39642;47.556;18.728;2023-06-22T11:33:50;99846.41;;;25.01;59.31
51249;BME280;39642;47.556;18.728;2023-06-22T11:36:16;99839.16;;;25.03;59.28
51249;BME280;39642;47.556;18.728;2023-06-22T11:38:43;99841.94;;;25.01;59.28
51249;BME280;39642;47.556;18.728;2023-06-22T11:41:09;99833.84;;;25.03;59.25
51249;BME280;39642;47.556;18.728;2023-06-22T11:43:36;99833.84;;;25.03;59.22
51249;BME280;39642;47.556;18.728;2023-06-22T11:46:03;99831.16;;;25.03;59.19
51249;BME280;39642;47.556;18.728;2023-06-22T11:48:29;99828.50;;;25.03;59.16
51249;BME280;39642;47.556;18.728;2023-06-22T11:50:56;99832.00;;;25.03;59.16
51249;BME280;39642;47.556;18.728;2023-06-22T11:53:25;99833.84;;;25.03;59.18
51249;BME280;39642;47.556;18.728;2023-06-22T11:55:51;99828.50;;;25.03;59.18
51249;BME280;39642;47.556;18.728;2023-06-22T11:58:18;99824.16;;;25.02;59.17
51249;BME280;39642;47.556;18.728;2023-06-22T12:00:44;99821.50;;;25.02;59.19
51249;BME280;39642;47.556;18.728;2023-06-22T12:03:10;99816.16;;;25.02;59.20
51249;BME280;39642;47.556;18.728;2023-06-22T12:05:38;99821.50;;;25.02;59.20
51249;BME280;39642;47.556;18.728;2023-06-22T12:08:04;99816.16;;;25.02;59.20
51249;BME280;39642;47.556;18.728;2023-06-22T12:10:30;99822.44;;;25.01;59.21
51249;BME280;39642;47.556;18.728;2023-06-22T12:12:56;99817.13;;;25.01;59.21
51249;BME280;39642;47.556;18.728;2023-06-22T12:15:23;99815.44;;;25.00;59.18
51249;BME280;39642;47.556;18.728;2023-06-22T12:17:49;99818.94;;;25.00;59.21
51249;BME280;39642;47.556;18.728;2023-06-22T12:20:15;99814.44;;;25.01;59.20
51249;BME280;39642;47.556;18.728;2023-06-22T12:22:41;99808.28;;;25.00;59.18
51249;BME280;39642;47.556;18.728;2023-06-22T12:25:08;99807.44;;;25.00;59.20
51249;BME280;39642;47.556;18.728;2023-06-22T12:27:37;99799.44;;;25.00;59.18
51249;BME280;39642;47.556;18.728;2023-06-22T12:30:04;99794.13;;;25.00;59.21
51249;BME280;39642;47.556;18.728;2023-06-22T12:32:30;99797.72;;;24.99;59.18
51249;BME280;39642;47.556;18.728;2023-06-22T12:34:56;99794.13;;;25.00;59.18
51249;BME280;39642;47.556;18.728;2023-06-22T12:37:22;99798.56;;;24.99;59.17
51249;BME280;39642;47.556;18.728;2023-06-22T12:39:48;99794.13;;;25.00;59.16
51249;BME280;39642;47.556;18.728;2023-06-22T12:42:15;99789.75;;;24.99;59.17
51249;BME280;39642;47.556;18.728;2023-06-22T12:44:42;99794.13;;;25.00;59.14
51249;BME280;39642;47.556;18.728;2023-06-22T12:47:08;99793.13;;;25.01;59.13
51249;BME280;39642;47.556;18.728;2023-06-22T12:49:35;99789.63;;;25.00;59.11
51249;BME280;39642;47.556;18.728;2023-06-22T12:52:01;99791.47;;;25.00;59.16
51249;BME280;39642;47.556;18.728;2023-06-22T12:54:27;99793.13;;;25.01;59.10
51249;BME280;39642;47.556;18.728;2023-06-22T12:56:55;99786.97;;;25.00;59.09
51249;BME280;39642;47.556;18.728;2023-06-22T12:59:21;99786.97;;;25.00;59.10
51249;BME280;39642;47.556;18.728;2023-06-22T13:01:47;99778.97;;;25.00;59.11
51249;BME280;39642;47.556;18.728;2023-06-22T13:04:13;99785.25;;;24.99;59.11